sensor_id;sensor_type;location;lat;lon;timestamp;pressure;altitude;pressure_sealevel;temperature;humidity
39769;BME280;38939;47.824;14.642;2023-04-28T00:00:34;97046.88;;;7.50;73.30
39769;BME280;38939;47.824;14.642;2023-04-28T00:01:36;97052.69;;;7.52;73.63
39769;BME280;38939;47.824;14.642;2023-04-28T00:02:38;97057.06;;;7.51;73.37
39769;BME280;38939;47.824;14.642;2023-04-28T00:03:40;97054.47;;;7.51;73.43
39769;BME280;38939;47.824;14.642;2023-04-28T00:04:43;97052.78;;;7.44;73.30
39769;BME280;38939;47.824;14.642;2023-04-28T00:05:45;97051.78;;;7.45;73.69
39769;BME280;38939;47.824;14.642;2023-04-28T00:06:48;97047.06;;;7.48;72.79
39769;BME280;38939;47.824;14.642;2023-04-28T00:07:50;97050.44;;;7.49;74.00
39769;BME280;38939;47.824;14.642;2023-04-28T00:08:52;97051.25;;;7.49;73.62
39769;BME280;38939;47.824;14.642;2023-04-28T00:09:54;97046.06;;;7.49;73.78
39769;BME280;38939;47.824;14.642;2023-04-28T00:10:57;97041.56;;;7.43;74.15
39769;BME280;38939;47.824;14.642;2023-04-28T00:11:59;97042.13;;;7.38;74.47
39769;BME280;38939;47.824;14.642;2023-04-28T00:13:02;97048.63;;;7.19;76.47
39769;BME280;38939;47.824;14.642;2023-04-28T00:14:04;97043.63;;;7.18;75.20
39769;BME280;38939;47.824;14.642;2023-04-28T00:15:06;97047.38;;;7.15;75.48
39769;BME280;38939;47.824;14.642;2023-04-28T00:16:08;97041.97;;;7.17;75.29
39769;BME280;38939;47.824;14.642;2023-04-28T00:17:10;97044.88;;;7.22;74.36
39769;BME280;38939;47.824;14.642;2023-04-28T00:18:12;97041.09;;;7.25;74.77
39769;BME280;38939;47.824;14.642;2023-04-28T00:19:14;97042.56;;;7.27;74.35
39769;BME280;38939;47.824;14.642;2023-04-28T00:20:16;97044.97;;;7.29;74.19
39769;BME280;38939;47.824;14.642;2023-04-28T00:21:18;97045.78;;;7.29;73.65
39769;BME280;38939;47.824;14.642;2023-04-28T00:22:20;97041.94;;;7.25;74.24
39769;BME280;38939;47.824;14.642;2023-04-28T00:23:22;97043.06;;;7.22;74.64
39769;BME280;38939;47.824;14.642;2023-04-28T00:24:24;97037.09;;;7.22;74.75
39769;BME280;38939;47.824;14.642;2023-04-28T00:25:26;97039.34;;;7.25;74.14
39769;BME280;38939;47.824;14.642;2023-04-28T00:26:28;97040.66;;;7.21;75.86
39769;BME280;38939;47.824;14.642;2023-04-28T00:27:31;97042.06;;;7.09;76.52
39769;BME280;38939;47.824;14.642;2023-04-28T00:28:33;97039.63;;;6.92;78.46
39769;BME280;38939;47.824;14.642;2023-04-28T00:29:35;97028.03;;;6.80;79.40
39769;BME280;38939;47.824;14.642;2023-04-28T00:30:37;97034.09;;;6.72;79.76
39769;BME280;38939;47.824;14.642;2023-04-28T00:31:39;97032.97;;;6.75;79.84
39769;BME280;38939;47.824;14.642;2023-04-28T00:32:41;97031.00;;;6.77;79.68
39769;BME280;38939;47.824;14.642;2023-04-28T00:33:43;97041.31;;;6.85;78.36
39769;BME280;38939;47.824;14.642;2023-04-28T00:34:45;97033.00;;;6.90;76.94
39769;BME280;38939;47.824;14.642;2023-04-28T00:35:47;97030.69;;;6.95;77.04
39769;BME280;38939;47.824;14.642;2023-04-28T00:36:49;97031.75;;;7.00;75.67
39769;BME280;38939;47.824;14.642;2023-04-28T00:37:51;97038.41;;;7.03;76.36
39769;BME280;38939;47.824;14.642;2023-04-28T00:38:53;97030.44;;;7.05;76.33
39769;BME280;38939;47.824;14.642;2023-04-28T00:39:55;97030.88;;;7.08;75.01
39769;BME280;38939;47.824;14.642;2023-04-28T00:40:57;97033.16;;;7.11;75.09
39769;BME280;38939;47.824;14.642;2023-04-28T00:41:59;97030.34;;;7.13;75.47
39769;BME280;38939;47.824;14.642;2023-04-28T00:43:02;97029.22;;;7.15;74.91
39769;BME280;38939;47.824;14.642;2023-04-28T00:44:05;97028.84;;;7.18;74.73
39769;BME280;38939;47.824;14.642;2023-04-28T00:45:07;97025.78;;;7.15;75.70
39769;BME280;38939;47.824;14.642;2023-04-28T00:46:09;97031.59;;;7.02;75.09
39769;BME280;38939;47.824;14.642;2023-04-28T00:47:11;97028.38;;;7.00;75.38
39769;BME280;38939;47.824;14.642;2023-04-28T00:48:14;97023.72;;;6.95;75.32
39769;BME280;38939;47.824;14.642;2023-04-28T00:49:16;97029.53;;;6.97;75.22
39769;BME280;38939;47.824;14.642;2023-04-28T00:50:18;97026.56;;;7.00;74.82
39769;BME280;38939;47.824;14.642;2023-04-28T00:51:20;97027.19;;;7.03;74.57
39769;BME280;38939;47.824;14.642;2023-04-28T00:52:22;97020.69;;;7.07;74.47
39769;BME280;38939;47.824;14.642;2023-04-28T00:53:24;97020.34;;;7.10;74.41
39769;BME280;38939;47.824;14.642;2023-04-28T00:54:26;97025.34;;;7.11;74.16
39769;BME280;38939;47.824;14.642;2023-04-28T00:55:29;97018.19;;;7.13;73.92
39769;BME280;38939;47.824;14.642;2023-04-28T00:56:32;97017.84;;;7.16;73.78
39769;BME280;38939;47.824;14.642;2023-04-28T00:57:34;97027.03;;;7.19;74.02
39769;BME280;38939;47.824;14.642;2023-04-28T00:58:36;97020.88;;;7.20;73.34
39769;BME280;38939;47.824;14.642;2023-04-28T00:59:38;97021.50;;;7.22;73.78
39769;BME280;38939;47.824;14.642;2023-04-28T01:00:40;97028.66;;;7.20;73.97
39769;BME280;38939;47.824;14.642;2023-04-28T01:01:42;97025.78;;;7.15;74.27
39769;BME280;38939;47.824;14.642;2023-04-28T01:02:44;97026.97;;;7.12;73.84
39769;BME280;38939;47.824;14.642;2023-04-28T01:03:47;97021.31;;;7.09;73.96
39769;BME280;38939;47.824;14.642;2023-04-28T01:04:49;97026.13;;;6.97;75.73
39769;BME280;38939;47.824;14.642;2023-04-28T01:05:53;97025.31;;;6.96;75.30
39769;BME280;38939;47.824;14.642;2023-04-28T01:06:55;97026.13;;;6.97;74.98
39769;BME280;38939;47.824;14.642;2023-04-28T01:07:57;97030.56;;;6.88;77.09
39769;BME280;38939;47.824;14.642;2023-04-28T01:08:59;97020.56;;;6.85;76.83
39769;BME280;38939;47.824;14.642;2023-04-28T01:10:01;97019.41;;;6.88;76.19
39769;BME280;38939;47.824;14.642;2023-04-28T01:11:03;97013.03;;;6.90;75.59
39769;BME280;38939;47.824;14.642;2023-04-28T01:12:05;97016.28;;;6.92;76.13
39769;BME280;38939;47.824;14.642;2023-04-28T01:13:07;97011.09;;;6.92;75.47
39769;BME280;38939;47.824;14.642;2023-04-28T01:14:09;97013.03;;;6.90;75.86
39769;BME280;38939;47.824;14.642;2023-04-28T01:15:14;97009.19;;;6.86;76.24
39769;BME280;38939;47.824;14.642;2023-04-28T01:16:16;97012.94;;;6.84;76.08
39769;BME280;38939;47.824;14.642;2023-04-28T01:17:18;97015.88;;;6.80;76.06
39769;BME280;38939;47.824;14.642;2023-04-28T01:18:20;97007.13;;;6.81;75.99
39769;BME280;38939;47.824;14.642;2023-04-28T01:19:23;97006.59;;;6.86;75.55
39769;BME280;38939;47.824;14.642;2023-04-28T01:20:25;97008.22;;;6.87;75.82
39769;BME280;38939;47.824;14.642;2023-04-28T01:21:27;97007.84;;;6.90;75.09
39769;BME280;38939;47.824;14.642;2023-04-28T01:22:30;97013.75;;;6.84;76.78
39769;BME280;38939;47.824;14.642;2023-04-28T01:23:32;97010.53;;;6.82;76.79
39769;BME280;38939;47.824;14.642;2023-04-28T01:24:34;97009.72;;;6.81;76.55
39769;BME280;38939;47.824;14.642;2023-04-28T01:25:36;97010.69;;;6.80;75.59
39769;BME280;38939;47.824;14.642;2023-04-28T01:26:38;97017.34;;;6.83;76.11
39769;BME280;38939;47.824;14.642;2023-04-28T01:27:40;97015.38;;;6.85;75.39
39769;BME280;38939;47.824;14.642;2023-04-28T01:28:42;97016.00;;;6.87;75.73
39769;BME280;38939;47.824;14.642;2023-04-28T01:29:44;97019.56;;;6.86;75.42
39769;BME280;38939;47.824;14.642;2023-04-28T01:30:46;97012.59;;;6.87;76.10
39769;BME280;38939;47.824;14.642;2023-04-28T01:31:48;97010.81;;;6.87;75.77
39769;BME280;38939;47.824;14.642;2023-04-28T01:32:50;97011.63;;;6.88;76.08
39769;BME280;38939;47.824;14.642;2023-04-28T01:33:52;97015.72;;;6.82;76.54
39769;BME280;38939;47.824;14.642;2023-04-28T01:34:54;97014.13;;;6.81;76.11
39769;BME280;38939;47.824;14.642;2023-04-28T01:35:56;97015.88;;;6.80;75.92
39769;BME280;38939;47.824;14.642;2023-04-28T01:36:59;97020.91;;;6.82;76.04
39769;BME280;38939;47.824;14.642;2023-04-28T01:38:01;97017.34;;;6.83;76.69
39769;BME280;38939;47.824;14.642;2023-04-28T01:39:03;97017.50;;;6.81;76.26
39769;BME280;38939;47.824;14.642;2023-04-28T01:40:06;97025.13;;;6.83;76.51
39769;BME280;38939;47.824;14.642;2023-04-28T01:41:08;97022.16;;;6.86;76.19
39769;BME280;38939;47.824;14.642;2023-04-28T01:42:10;97020.19;;;6.88;76.36
39769;BME280;38939;47.824;14.642;2023-04-28T01:43:12;97019.06;;;6.91;75.84
39769;BME280;38939;47.824;14.642;2023-04-28T01:44:14;97022.63;;;6.90;75.60
39769;BME280;38939;47.824;14.642;2023-04-28T01:45:16;97019.06;;;6.91;75.48
39769;BME280;38939;47.824;14.642;2023-04-28T01:46:18;97017.28;;;6.91;76.34
39769;BME280;38939;47.824;14.642;2023-04-28T01:47:20;97020.66;;;6.92;75.94
39769;BME280;38939;47.824;14.642;2023-04-28T01:48:22;97019.50;;;6.94;76.37
39769;BME280;38939;47.824;14.642;2023-04-28T01:49:24;97020.50;;;6.93;75.80
39769;BME280;38939;47.824;14.642;2023-04-28T01:50:26;97017.91;;;6.93;75.42
39769;BME280;38939;47.824;14.642;2023-04-28T01:51:28;97021.13;;;6.95;76.23
39769;BME280;38939;47.824;14.642;2023-04-28T01:52:30;97016.56;;;6.97;75.31
39769;BME280;38939;47.824;14.642;2023-04-28T01:53:32;97021.59;;;6.99;75.27
39769;BME280;38939;47.824;14.642;2023-04-28T01:54:34;97021.13;;;6.95;76.00
39769;BME280;38939;47.824;14.642;2023-04-28T01:55:36;97020.31;;;6.95;75.74
39769;BME280;38939;47.824;14.642;2023-04-28T01:56:38;97025.13;;;6.98;75.98
39769;BME280;38939;47.824;14.642;2023-04-28T01:57:40;97024.69;;;6.94;76.38
39769;BME280;38939;47.824;14.642;2023-04-28T01:58:42;97038.66;;;6.93;76.27
39769;BME280;38939;47.824;14.642;2023-04-28T01:59:44;97026.84;;;6.91;76.52
39769;BME280;38939;47.824;14.642;2023-04-28T02:00:46;97015.00;;;6.88;75.66
39769;BME280;38939;47.824;14.642;2023-04-28T02:01:48;97014.75;;;6.83;76.57
39769;BME280;38939;47.824;14.642;2023-04-28T02:02:50;97020.44;;;6.78;76.88
39769;BME280;38939;47.824;14.642;2023-04-28T02:03:52;97022.69;;;6.81;76.85
39769;BME280;38939;47.824;14.642;2023-04-28T02:04:56;97021.53;;;6.84;75.84
39769;BME280;38939;47.824;14.642;2023-04-28T02:05:58;97019.56;;;6.86;76.15
39769;BME280;38939;47.824;14.642;2023-04-28T02:07:00;97019.31;;;6.81;76.82
39769;BME280;38939;47.824;14.642;2023-04-28T02:08:02;97010.25;;;6.77;77.15
39769;BME280;38939;47.824;14.642;2023-04-28T02:09:04;97008.00;;;6.74;77.45
39769;BME280;38939;47.824;14.642;2023-04-28T02:10:07;97009.25;;;6.78;77.22
39769;BME280;38939;47.824;14.642;2023-04-28T02:11:09;97001.31;;;6.79;76.63
39769;BME280;38939;47.824;14.642;2023-04-28T02:12:11;97004.53;;;6.81;75.89
39769;BME280;38939;47.824;14.642;2023-04-28T02:13:13;97007.75;;;6.84;76.54
39769;BME280;38939;47.824;14.642;2023-04-28T02:14:15;97002.19;;;6.72;77.22
39769;BME280;38939;47.824;14.642;2023-04-28T02:15:17;96997.53;;;6.67;77.78
39769;BME280;38939;47.824;14.642;2023-04-28T02:16:20;96999.59;;;6.72;77.31
39769;BME280;38939;47.824;14.642;2023-04-28T02:17:22;96999.44;;;6.73;76.89
39769;BME280;38939;47.824;14.642;2023-04-28T02:18:23;97001.03;;;6.74;76.42
39769;BME280;38939;47.824;14.642;2023-04-28T02:19:25;96999.75;;;6.70;77.24
39769;BME280;38939;47.824;14.642;2023-04-28T02:20:27;96998.69;;;6.65;77.76
39769;BME280;38939;47.824;14.642;2023-04-28T02:21:32;96996.44;;;6.61;77.74
39769;BME280;38939;47.824;14.642;2023-04-28T02:22:34;96985.91;;;6.63;77.89
39769;BME280;38939;47.824;14.642;2023-04-28T02:23:37;96989.91;;;6.66;78.08
39769;BME280;38939;47.824;14.642;2023-04-28T02:24:39;96992.81;;;6.71;77.63
39769;BME280;38939;47.824;14.642;2023-04-28T02:25:41;96992.44;;;6.74;77.25
39769;BME280;38939;47.824;14.642;2023-04-28T02:26:43;96998.09;;;6.77;76.84
39769;BME280;38939;47.824;14.642;2023-04-28T02:27:45;96989.16;;;6.80;75.98
39769;BME280;38939;47.824;14.642;2023-04-28T02:28:47;96989.78;;;6.82;76.53
39769;BME280;38939;47.824;14.642;2023-04-28T02:29:49;96990.56;;;6.82;76.22
39769;BME280;38939;47.824;14.642;2023-04-28T02:30:52;96993.69;;;6.78;76.69
39769;BME280;38939;47.824;14.642;2023-04-28T02:31:54;97003.81;;;6.73;77.81
39769;BME280;38939;47.824;14.642;2023-04-28T02:32:56;96993.84;;;6.61;77.60
39769;BME280;38939;47.824;14.642;2023-04-28T02:33:58;96994.25;;;6.50;77.54
39769;BME280;38939;47.824;14.642;2023-04-28T02:35:00;96993.28;;;6.51;77.37
39769;BME280;38939;47.824;14.642;2023-04-28T02:36:02;96995.34;;;6.56;77.57
39769;BME280;38939;47.824;14.642;2023-04-28T02:37:04;96998.41;;;6.59;77.44
39769;BME280;38939;47.824;14.642;2023-04-28T02:38:06;96996.91;;;6.65;77.43
39769;BME280;38939;47.824;14.642;2023-04-28T02:39:08;96994.78;;;6.69;76.83
39769;BME280;38939;47.824;14.642;2023-04-28T02:40:11;97003.81;;;6.73;76.47
39769;BME280;38939;47.824;14.642;2023-04-28T02:41:13;96999.09;;;6.53;78.17
39769;BME280;38939;47.824;14.642;2023-04-28T02:42:16;96996.88;;;6.42;79.73
39769;BME280;38939;47.824;14.642;2023-04-28T02:43:18;96997.41;;;6.37;79.08
39769;BME280;38939;47.824;14.642;2023-04-28T02:44:20;97002.50;;;6.31;79.15
39769;BME280;38939;47.824;14.642;2023-04-28T02:45:22;97003.75;;;6.35;79.09
39769;BME280;38939;47.824;14.642;2023-04-28T02:46:23;96996.88;;;6.42;77.94
39769;BME280;38939;47.824;14.642;2023-04-28T02:47:26;96998.69;;;6.41;78.36
39769;BME280;38939;47.824;14.642;2023-04-28T02:48:28;96995.94;;;6.43;78.46
39769;BME280;38939;47.824;14.642;2023-04-28T02:49:30;96987.78;;;6.46;78.30
39769;BME280;38939;47.824;14.642;2023-04-28T02:50:32;96989.88;;;6.51;78.12
39769;BME280;38939;47.824;14.642;2023-04-28T02:51:34;96988.72;;;6.53;77.17
39769;BME280;38939;47.824;14.642;2023-04-28T02:52:36;96984.97;;;6.56;77.61
39769;BME280;38939;47.824;14.642;2023-04-28T02:53:38;96993.84;;;6.61;76.39
39769;BME280;38939;47.824;14.642;2023-04-28T02:54:40;96982.66;;;6.61;77.45
39769;BME280;38939;47.824;14.642;2023-04-28T02:55:42;96989.03;;;6.58;77.77
39769;BME280;38939;47.824;14.642;2023-04-28T02:56:44;96984.97;;;6.56;77.45
39769;BME280;38939;47.824;14.642;2023-04-28T02:57:46;96996.16;;;6.56;77.26
39769;BME280;38939;47.824;14.642;2023-04-28T02:58:48;96984.97;;;6.56;76.88
39769;BME280;38939;47.824;14.642;2023-04-28T02:59:50;96988.38;;;6.56;76.93
39769;BME280;38939;47.824;14.642;2023-04-28T03:00:52;96988.03;;;6.59;76.46
39769;BME280;38939;47.824;14.642;2023-04-28T03:01:54;96986.53;;;6.65;76.79
39769;BME280;38939;47.824;14.642;2023-04-28T03:02:56;96994.47;;;6.64;77.62
39769;BME280;38939;47.824;14.642;2023-04-28T03:03:58;96993.50;;;6.65;77.15
39769;BME280;38939;47.824;14.642;2023-04-28T03:05:01;96988.94;;;6.67;77.27
39769;BME280;38939;47.824;14.642;2023-04-28T03:06:03;96988.66;;;6.61;77.61
39769;BME280;38939;47.824;14.642;2023-04-28T03:07:05;96987.06;;;6.60;77.71
39769;BME280;38939;47.824;14.642;2023-04-28T03:08:07;96986.69;;;6.64;77.17
39769;BME280;38939;47.824;14.642;2023-04-28T03:09:09;96987.84;;;6.61;77.62
39769;BME280;38939;47.824;14.642;2023-04-28T03:10:11;96984.63;;;6.59;76.99
39769;BME280;38939;47.824;14.642;2023-04-28T03:11:13;96982.84;;;6.59;76.98
39769;BME280;38939;47.824;14.642;2023-04-28T03:12:15;96977.50;;;6.61;77.22
39769;BME280;38939;47.824;14.642;2023-04-28T03:13:17;96979.72;;;6.64;76.85
39769;BME280;38939;47.824;14.642;2023-04-28T03:14:19;96980.34;;;6.66;76.95
39769;BME280;38939;47.824;14.642;2023-04-28T03:15:21;96981.81;;;6.69;77.01
39769;BME280;38939;47.824;14.642;2023-04-28T03:16:23;96982.44;;;6.71;76.94
39769;BME280;38939;47.824;14.642;2023-04-28T03:17:24;96979.84;;;6.71;76.95
39769;BME280;38939;47.824;14.642;2023-04-28T03:18:26;96974.03;;;6.69;77.81
39769;BME280;38939;47.824;14.642;2023-04-28T03:19:28;96979.38;;;6.67;76.93
39769;BME280;38939;47.824;14.642;2023-04-28T03:20:30;96979.63;;;6.57;78.43
39769;BME280;38939;47.824;14.642;2023-04-28T03:21:32;96978.97;;;6.55;78.83
39769;BME280;38939;47.824;14.642;2023-04-28T03:22:34;96978.66;;;6.58;78.18
39769;BME280;38939;47.824;14.642;2023-04-28T03:23:37;96971.50;;;6.60;78.06
39769;BME280;38939;47.824;14.642;2023-04-28T03:24:38;96973.72;;;6.64;78.01
39769;BME280;38939;47.824;14.642;2023-04-28T03:25:40;96983.13;;;6.65;77.70
39769;BME280;38939;47.824;14.642;2023-04-28T03:26:42;96978.75;;;6.65;77.20
39769;BME280;38939;47.824;14.642;2023-04-28T03:27:44;96985.19;;;6.69;77.59
39769;BME280;38939;47.824;14.642;2023-04-28T03:28:46;96978.84;;;6.72;76.66
39769;BME280;38939;47.824;14.642;2023-04-28T03:29:48;96984.19;;;6.70;77.25
39769;BME280;38939;47.824;14.642;2023-04-28T03:30:50;96973.72;;;6.64;77.58
39769;BME280;38939;47.824;14.642;2023-04-28T03:31:52;96972.47;;;6.59;78.40
39769;BME280;38939;47.824;14.642;2023-04-28T03:32:54;96970.88;;;6.58;79.14
39769;BME280;38939;47.824;14.642;2023-04-28T03:33:56;96966.66;;;6.57;79.17
39769;BME280;38939;47.824;14.642;2023-04-28T03:35:00;96974.75;;;6.54;78.24
39769;BME280;38939;47.824;14.642;2023-04-28T03:36:02;96967.34;;;6.51;79.57
39769;BME280;38939;47.824;14.642;2023-04-28T03:37:04;96967.34;;;6.51;78.57
39769;BME280;38939;47.824;14.642;2023-04-28T03:38:06;96975.44;;;6.56;77.87
39769;BME280;38939;47.824;14.642;2023-04-28T03:39:08;96968.28;;;6.58;78.04
39769;BME280;38939;47.824;14.642;2023-04-28T03:40:10;96968.72;;;6.62;78.54
39769;BME280;38939;47.824;14.642;2023-04-28T03:41:13;96960.50;;;6.58;78.34
39769;BME280;38939;47.824;14.642;2023-04-28T03:42:15;96965.69;;;6.58;78.50
39769;BME280;38939;47.824;14.642;2023-04-28T03:43:17;96961.94;;;6.61;78.34
39769;BME280;38939;47.824;14.642;2023-04-28T03:44:19;96962.19;;;6.66;77.74
39769;BME280;38939;47.824;14.642;2023-04-28T03:45:22;96965.25;;;6.70;78.22
39769;BME280;38939;47.824;14.642;2023-04-28T03:46:24;96964.28;;;6.71;77.18
39769;BME280;38939;47.824;14.642;2023-04-28T03:47:26;96964.91;;;6.73;76.97
39769;BME280;38939;47.824;14.642;2023-04-28T03:48:28;96962.94;;;6.75;77.43
39769;BME280;38939;47.824;14.642;2023-04-28T03:49:30;96964.09;;;6.72;78.08
39769;BME280;38939;47.824;14.642;2023-04-28T03:50:32;96959.44;;;6.68;78.83
39769;BME280;38939;47.824;14.642;2023-04-28T03:51:34;96966.59;;;6.66;78.76
39769;BME280;38939;47.824;14.642;2023-04-28T03:52:36;96962.63;;;6.55;78.54
39769;BME280;38939;47.824;14.642;2023-04-28T03:53:39;96959.22;;;6.54;79.00
39769;BME280;38939;47.824;14.642;2023-04-28T03:54:41;96963.72;;;6.60;78.97
39769;BME280;38939;47.824;14.642;2023-04-28T03:55:43;96961.41;;;6.66;78.54
39769;BME280;38939;47.824;14.642;2023-04-28T03:56:45;96961.69;;;6.71;78.58
39769;BME280;38939;47.824;14.642;2023-04-28T03:57:47;96965.72;;;6.73;78.18
39769;BME280;38939;47.824;14.642;2023-04-28T03:58:49;96962.31;;;6.73;78.41
39769;BME280;38939;47.824;14.642;2023-04-28T03:59:51;96961.50;;;6.72;78.49
39769;BME280;38939;47.824;14.642;2023-04-28T04:00:52;96961.31;;;6.74;78.71
39769;BME280;38939;47.824;14.642;2023-04-28T04:01:54;96964.00;;;6.66;78.83
39769;BME280;38939;47.824;14.642;2023-04-28T04:02:57;96958.47;;;6.69;78.75
39769;BME280;38939;47.824;14.642;2023-04-28T04:04:04;96954.53;;;6.73;78.00
39769;BME280;38939;47.824;14.642;2023-04-28T04:05:06;96959.38;;;6.76;77.92
39769;BME280;38939;47.824;14.642;2023-04-28T04:06:08;96954.97;;;6.76;77.27
39769;BME280;38939;47.824;14.642;2023-04-28T04:07:10;96955.34;;;6.73;78.36
39769;BME280;38939;47.824;14.642;2023-04-28T04:08:12;96953.91;;;6.71;77.88
39769;BME280;38939;47.824;14.642;2023-04-28T04:09:15;96954.88;;;6.70;78.92
39769;BME280;38939;47.824;14.642;2023-04-28T04:10:17;96951.03;;;6.66;79.06
39769;BME280;38939;47.824;14.642;2023-04-28T04:11:19;96950.22;;;6.65;79.12
39769;BME280;38939;47.824;14.642;2023-04-28T04:12:21;96944.25;;;6.65;78.93
39769;BME280;38939;47.824;14.642;2023-04-28T04:13:23;96952.81;;;6.65;79.17
39769;BME280;38939;47.824;14.642;2023-04-28T04:14:25;96948.91;;;6.69;78.91
39769;BME280;38939;47.824;14.642;2023-04-28T04:15:27;96949.34;;;6.73;78.09
39769;BME280;38939;47.824;14.642;2023-04-28T04:16:29;96948.19;;;6.75;78.53
39769;BME280;38939;47.824;14.642;2023-04-28T04:17:31;96944.25;;;6.79;77.55
39769;BME280;38939;47.824;14.642;2023-04-28T04:18:33;96941.31;;;6.82;78.11
39769;BME280;38939;47.824;14.642;2023-04-28T04:19:35;96940.25;;;6.77;79.05
39769;BME280;38939;47.824;14.642;2023-04-28T04:20:37;96942.84;;;6.77;78.63
39769;BME280;38939;47.824;14.642;2023-04-28T04:21:39;96943.81;;;6.76;77.69
39769;BME280;38939;47.824;14.642;2023-04-28T04:22:41;96938.44;;;6.77;78.43
39769;BME280;38939;47.824;14.642;2023-04-28T04:23:43;96947.81;;;6.78;77.89
39769;BME280;38939;47.824;14.642;2023-04-28T04:24:45;96938.59;;;6.61;80.26
39769;BME280;38939;47.824;14.642;2023-04-28T04:25:47;96945.28;;;6.55;80.38
39769;BME280;38939;47.824;14.642;2023-04-28T04:26:50;96947.19;;;6.61;79.07
39769;BME280;38939;47.824;14.642;2023-04-28T04:27:52;96948.91;;;6.69;78.35
39769;BME280;38939;47.824;14.642;2023-04-28T04:28:53;96951.75;;;6.74;78.23
39769;BME280;38939;47.824;14.642;2023-04-28T04:29:55;96941.22;;;6.76;78.11
39769;BME280;38939;47.824;14.642;2023-04-28T04:30:57;96946.56;;;6.74;78.66
39769;BME280;38939;47.824;14.642;2023-04-28T04:31:59;96947.34;;;6.60;80.13
39769;BME280;38939;47.824;14.642;2023-04-28T04:33:01;96943.94;;;6.59;80.25
39769;BME280;38939;47.824;14.642;2023-04-28T04:34:03;96950.41;;;6.64;80.89
39769;BME280;38939;47.824;14.642;2023-04-28T04:35:05;96956.56;;;6.63;81.03
39769;BME280;38939;47.824;14.642;2023-04-28T04:36:07;96952.66;;;6.67;81.07
39769;BME280;38939;47.824;14.642;2023-04-28T04:37:09;96955.50;;;6.72;79.97
39769;BME280;38939;47.824;14.642;2023-04-28T04:38:11;96950.00;;;6.75;80.71
39769;BME280;38939;47.824;14.642;2023-04-28T04:39:13;96946.41;;;6.76;80.28
39769;BME280;38939;47.824;14.642;2023-04-28T04:40:16;96946.56;;;6.74;81.24
39769;BME280;38939;47.824;14.642;2023-04-28T04:41:18;96950.00;;;6.75;81.38
39769;BME280;38939;47.824;14.642;2023-04-28T04:42:23;96946.94;;;6.71;81.89
39769;BME280;38939;47.824;14.642;2023-04-28T04:43:26;96946.47;;;6.68;82.27
39769;BME280;38939;47.824;14.642;2023-04-28T04:44:28;96938.97;;;6.73;81.55
39769;BME280;38939;47.824;14.642;2023-04-28T04:45:30;96943.81;;;6.76;81.71
39769;BME280;38939;47.824;14.642;2023-04-28T04:46:32;96943.81;;;6.76;80.59
39769;BME280;38939;47.824;14.642;2023-04-28T04:47:34;96937.28;;;6.80;80.62
39769;BME280;38939;47.824;14.642;2023-04-28T04:48:36;96937.56;;;6.85;80.16
39769;BME280;38939;47.824;14.642;2023-04-28T04:49:38;96936.06;;;6.91;80.84
39769;BME280;38939;47.824;14.642;2023-04-28T04:50:40;96935.22;;;6.90;80.96
39769;BME280;38939;47.824;14.642;2023-04-28T04:51:43;96930.69;;;6.92;80.76
39769;BME280;38939;47.824;14.642;2023-04-28T04:52:45;96931.69;;;6.91;82.35
39769;BME280;38939;47.824;14.642;2023-04-28T04:53:47;96932.63;;;6.90;82.00
39769;BME280;38939;47.824;14.642;2023-04-28T04:54:49;96930.69;;;6.92;81.74
39769;BME280;38939;47.824;14.642;2023-04-28T04:55:51;96933.56;;;6.97;81.70
39769;BME280;38939;47.824;14.642;2023-04-28T04:56:53;96928.19;;;6.99;82.57
39769;BME280;38939;47.824;14.642;2023-04-28T04:57:55;96931.59;;;6.99;82.31
39769;BME280;38939;47.824;14.642;2023-04-28T04:58:57;96935.78;;;7.00;81.91
39769;BME280;38939;47.824;14.642;2023-04-28T04:59:58;96927.03;;;7.01;82.22
39769;BME280;38939;47.824;14.642;2023-04-28T05:01:00;96928.28;;;7.06;81.47
39769;BME280;38939;47.824;14.642;2023-04-28T05:02:02;96925.13;;;7.10;82.14
39769;BME280;38939;47.824;14.642;2023-04-28T05:03:04;96927.38;;;7.13;82.85
39769;BME280;38939;47.824;14.642;2023-04-28T05:04:07;96928.19;;;7.14;82.69
39769;BME280;38939;47.824;14.642;2023-04-28T05:05:09;96937.22;;;7.18;83.29
39769;BME280;38939;47.824;14.642;2023-04-28T05:06:22;96922.09;;;7.21;82.52
39769;BME280;38939;47.824;14.642;2023-04-28T05:07:24;96932.75;;;7.27;83.43
39769;BME280;38939;47.824;14.642;2023-04-28T05:08:27;96932.22;;;7.31;83.21
39769;BME280;38939;47.824;14.642;2023-04-28T05:09:29;96927.66;;;7.33;83.70
39769;BME280;38939;47.824;14.642;2023-04-28T05:10:32;96923.09;;;7.35;82.68
39769;BME280;38939;47.824;14.642;2023-04-28T05:11:34;96918.13;;;7.40;82.92
39769;BME280;38939;47.824;14.642;2023-04-28T05:12:36;96923.16;;;7.42;83.54
39769;BME280;38939;47.824;14.642;2023-04-28T05:13:39;96919.16;;;7.39;85.40
39769;BME280;38939;47.824;14.642;2023-04-28T05:14:41;96919.03;;;7.33;85.68
39769;BME280;38939;47.824;14.642;2023-04-28T05:15:43;96921.63;;;7.33;85.82
39769;BME280;38939;47.824;14.642;2023-04-28T05:16:45;96922.25;;;7.35;86.54
39769;BME280;38939;47.824;14.642;2023-04-28T05:17:47;96917.91;;;7.35;86.55
39769;BME280;38939;47.824;14.642;2023-04-28T05:18:49;96918.31;;;7.39;86.29
39769;BME280;38939;47.824;14.642;2023-04-28T05:19:51;96915.81;;;7.46;86.56
39769;BME280;38939;47.824;14.642;2023-04-28T05:20:53;96921.00;;;7.46;85.84
39769;BME280;38939;47.824;14.642;2023-04-28T05:21:55;96911.25;;;7.48;86.22
39769;BME280;38939;47.824;14.642;2023-04-28T05:22:57;96918.66;;;7.51;86.43
39769;BME280;38939;47.824;14.642;2023-04-28T05:24:00;96923.69;;;7.52;85.68
39769;BME280;38939;47.824;14.642;2023-04-28T05:25:02;96919.28;;;7.53;86.20
39769;BME280;38939;47.824;14.642;2023-04-28T05:26:05;96908.56;;;7.56;85.72
39769;BME280;38939;47.824;14.642;2023-04-28T05:27:07;96919.91;;;7.55;86.88
39769;BME280;38939;47.824;14.642;2023-04-28T05:28:09;96914.53;;;7.56;86.45
39769;BME280;38939;47.824;14.642;2023-04-28T05:29:11;96920.00;;;7.61;85.96